2022年6月30日

时间 代码 天气 温度 能见度 天花板 METAR/SPECI
5:50 上午
V
64 °F 6¼ mi+ - 080° 080° 5 kt METAR EDHI 300350Z 08005KT 060V120 CAVOK 18/14 Q1013
5:20 上午
V
63 °F 6¼ mi+ - 060° 060° 5 kt METAR EDHI 300320Z AUTO 06005KT 040V100 9999 // NCD 17/14 Q1013
4:50 上午
V
64 °F 6¼ mi+ - 080° 080° 4 kt METAR EDHI 300250Z AUTO 08004KT 050V110 9999 // NCD 18/14 Q1014
4:20 上午
V
64 °F 6¼ mi+ - 090° 090° 3 kt METAR EDHI 300220Z AUTO 09003KT 9999 // NCD 18/13 Q1014
3:50 上午
V
64 °F 6¼ mi+ - 090° 090° 3 kt METAR EDHI 300150Z AUTO 09003KT 9999 // NCD 18/13 Q1014
3:20 上午
V
66 °F 6¼ mi+ - 100° 100° 3 kt METAR EDHI 300120Z AUTO 10003KT 080V140 9999 // NCD 19/13 Q1014
2:50 上午
V
66 °F 6¼ mi+ - 100° 100° 4 kt METAR EDHI 300050Z AUTO 10004KT 070V150 9999 // NCD 19/12 Q1014
2:20 上午
V
66 °F 6¼ mi+ - 100° 100° 5 kt METAR EDHI 300020Z AUTO 10005KT 060V140 9999 // NCD 19/12 Q1014
1:50 上午
V
66 °F 6¼ mi+ - 100° 100° 6 kt METAR EDHI 292350Z AUTO 10006KT 070V130 9999 // NCD 19/12 Q1014
1:20 上午
V
68 °F 6¼ mi+ - 110° 110° 7 kt METAR EDHI 292320Z AUTO 11007KT 070V140 9999 // NCD 20/12 Q1014
12:50 上午
V
70 °F 6¼ mi+ - 100° 100° 8 kt METAR EDHI 292250Z AUTO 10008KT 060V140 9999 // NCD 21/11 Q1014
12:20 上午
V
70 °F 6¼ mi+ - 100° 100° 8 kt METAR EDHI 292220Z AUTO 10008KT 9999 // NCD 21/11 Q1014

2022年6月29日

时间 代码 天气 温度 能见度 天花板 METAR/SPECI
11:50 下午
V
72 °F 6¼ mi+ - 090° 090° 7 kt METAR EDHI 292150Z AUTO 09007KT 060V120 9999 // NCD 22/11 Q1014
11:20 下午
V
72 °F 6¼ mi+ - 100° 100° 6 kt METAR EDHI 292120Z AUTO 10006KT 070V130 9999 // NCD 22/11 Q1014
10:50 下午
V
73 °F 6¼ mi+ - 100° 100° 7 kt METAR EDHI 292050Z AUTO 10007KT 070V140 9999 // NCD 23/11 Q1014
10:20 下午
V
73 °F 6¼ mi+ - 090° 090° 7 - 17 kt METAR EDHI 292020Z AUTO 09007G17KT 050V130 9999 // NCD 23/11 Q1014
9:50 下午
V
75 °F 6¼ mi+ - 100° 100° 6 kt METAR EDHI 291950Z AUTO 10006KT 070V150 9999 // FEW150/// 24/10 Q1014
9:20 下午
V
75 °F 6¼ mi+ - 110° 110° 8 kt METAR EDHI 291920Z AUTO 11008KT 080V160 9999 // FEW150/// 24/10 Q1014
8:50 下午
V
77 °F 6¼ mi+ - 100° 100° 7 kt METAR EDHI 291850Z AUTO 10007KT 050V150 9999 // NCD 25/10 Q1013
8:20 下午
V
79 °F 6¼ mi+ - 120° 120° 4 kt METAR EDHI 291820Z AUTO 12004KT 060V170 9999 // NCD 26/09 Q1013
7:50 下午
V
81 °F 6¼ mi+ - 110° 110° 5 kt METAR EDHI 291750Z 11005KT 040V170 CAVOK 27/09 Q1013
7:20 下午
V
81 °F 6¼ mi+ - 090° 090° 5 kt METAR EDHI 291720Z 09005KT 040V190 CAVOK 27/09 Q1013
6:50 下午
V
81 °F 6¼ mi+ - 130° 130° 7 kt METAR EDHI 291650Z 13007KT 100V170 CAVOK 27/10 Q1014
6:20 下午
V
81 °F 6¼ mi+ - 120° 120° 8 kt METAR EDHI 291620Z 12008KT 060V160 CAVOK 27/09 Q1014
5:50 下午
V
82 °F 6¼ mi+ - Var Var 5 kt METAR EDHI 291550Z VRB05KT CAVOK 28/11 Q1014
5:20 下午
V
82 °F 6¼ mi+ - 120° 120° 6 kt METAR EDHI 291520Z 12006KT 070V180 CAVOK 28/12 Q1014
4:50 下午
V
82 °F 6¼ mi+ - 140° 140° 8 kt METAR EDHI 291450Z 14008KT 070V200 CAVOK 28/12 Q1014
4:20 下午
V
82 °F 6¼ mi+ - 130° 130° 7 kt METAR EDHI 291420Z 13007KT 050V190 CAVOK 28/12 Q1015
3:50 下午
V
81 °F 6¼ mi+ - 100° 100° 7 kt METAR EDHI 291350Z 10007KT 040V180 CAVOK 27/11 Q1015
3:20 下午
V
82 °F 6¼ mi+ - 130° 130° 8 kt METAR EDHI 291320Z 13008KT 080V190 CAVOK 28/12 Q1015
2:50 下午
V
79 °F 6¼ mi+ - 150° 150° 7 kt METAR EDHI 291250Z 15007KT 090V190 CAVOK 26/11 Q1015
2:20 下午
V
81 °F 6¼ mi+ - 150° 150° 9 kt METAR EDHI 291220Z 15009KT 110V190 CAVOK 27/12 Q1015
1:50 下午
V
79 °F 6¼ mi+ - 140° 140° 7 kt METAR EDHI 291150Z 14007KT 090V200 CAVOK 26/12 Q1016
1:20 下午
V
79 °F 6¼ mi+ - 150° 150° 8 kt METAR EDHI 291120Z 15008KT 100V190 CAVOK 26/12 Q1016
12:50 下午
V
77 °F 6¼ mi+ - Var Var 5 kt METAR EDHI 291050Z VRB05KT 9999 FEW048 25/13 Q1016
12:20 下午
V
79 °F 6¼ mi+ - Var Var 7 kt METAR EDHI 291020Z VRB07KT 9999 SCT045 26/13 Q1016
11:50 上午
V
77 °F 6¼ mi+ - Var Var 6 kt METAR EDHI 290950Z VRB06KT 9999 FEW046 25/14 Q1017
11:20 上午
V
77 °F 6¼ mi+ - Var Var 6 kt METAR EDHI 290920Z VRB06KT 9999 FEW040 25/15 Q1017
10:50 上午
V
75 °F 6¼ mi+ - Var Var 6 kt METAR EDHI 290850Z VRB06KT CAVOK 24/14 Q1017
10:20 上午
V
72 °F 6¼ mi+ - 100° 100° 6 kt METAR EDHI 290820Z 10006KT 030V180 CAVOK 22/14 Q1017
9:50 上午
V
70 °F 6¼ mi+ - 100° 100° 6 kt METAR EDHI 290750Z 10006KT 050V150 CAVOK 21/14 Q1017
9:20 上午
V
70 °F 6¼ mi+ - 110° 110° 7 kt METAR EDHI 290720Z 11007KT 040V160 CAVOK 21/13 Q1017
8:50 上午
V
68 °F 6¼ mi+ - 110° 110° 6 kt METAR EDHI 290650Z 11006KT 060V170 CAVOK 20/12 Q1017
8:20 上午
V
66 °F 6¼ mi+ - 100° 100° 7 kt METAR EDHI 290620Z 10007KT 010V160 CAVOK 19/12 Q1017
7:50 上午
V
66 °F 6¼ mi+ - 100° 100° 8 kt METAR EDHI 290550Z 10008KT 040V160 CAVOK 19/11 Q1017
7:20 上午
V
64 °F 6¼ mi+ - 090° 090° 7 kt METAR EDHI 290520Z 09007KT 050V140 CAVOK 18/11 Q1018
6:50 上午
V
63 °F 6¼ mi+ - 090° 090° 7 kt METAR EDHI 290450Z 09007KT 060V120 CAVOK 17/11 Q1018
6:20 上午
V
63 °F 6¼ mi+ - 090° 090° 7 kt METAR EDHI 290420Z 09007KT 060V120 CAVOK 17/11 Q1018
5:50 上午
V
63 °F 6¼ mi+ - 100° 100° 5 kt METAR EDHI 290350Z 10005KT 060V140 CAVOK 17/11 Q1018
5:20 上午
V
63 °F 6¼ mi+ - 090° 090° 6 kt METAR EDHI 290320Z AUTO 09006KT 040V130 9999 // NCD 17/11 Q1018
4:50 上午
V
63 °F 6¼ mi+ - 090° 090° 5 kt METAR EDHI 290250Z AUTO 09005KT 050V130 9999 // NCD 17/12 Q1018
4:20 上午
V
63 °F 6¼ mi+ - 090° 090° 6 kt METAR EDHI 290220Z AUTO 09006KT 060V130 9999 // NCD 17/12 Q1018
3:50 上午
V
63 °F 6¼ mi+ - 100° 100° 6 kt METAR EDHI 290150Z AUTO 10006KT 060V130 9999 // NCD 17/12 Q1018
3:20 上午
V
64 °F 6¼ mi+ - 090° 090° 6 kt METAR EDHI 290120Z AUTO 09006KT 040V120 9999 // NCD 18/12 Q1018
2:50 上午
V
64 °F 6¼ mi+ - 090° 090° 6 kt METAR EDHI 290050Z AUTO 09006KT 050V130 9999 // NCD 18/12 Q1019
2:20 上午
V
64 °F 6¼ mi+ - 080° 080° 7 kt METAR EDHI 290020Z AUTO 08007KT 060V120 9999 // NCD 18/12 Q1019
1:50 上午
V
64 °F 6¼ mi+ - 080° 080° 6 kt METAR EDHI 282350Z AUTO 08006KT 060V120 9999 // NCD 18/12 Q1019
1:20 上午
V
64 °F 6¼ mi+ - 080° 080° 6 kt METAR EDHI 282320Z AUTO 08006KT 050V110 9999 // NCD 18/13 Q1020
12:50 上午
V
64 °F 6¼ mi+ - 070° 070° 5 kt METAR EDHI 282250Z AUTO 07005KT 040V100 9999 // NCD 18/13 Q1020
12:20 上午
V
64 °F 6¼ mi+ - 050° 050° 7 kt METAR EDHI 282220Z AUTO 05007KT 9999 // NCD 18/12 Q1020

2022年6月28日

时间 代码 天气 温度 能见度 天花板 METAR/SPECI
11:50 下午
V
64 °F 6¼ mi+ - 060° 060° 6 kt METAR EDHI 282150Z AUTO 06006KT 9999 // FEW071/// 18/12 Q1020
11:20 下午
V
64 °F 6¼ mi+ - 060° 060° 5 kt METAR EDHI 282120Z AUTO 06005KT 9999 // FEW069/// 18/11 Q1020
10:50 下午
V
66 °F 6¼ mi+ - 050° 050° 3 kt METAR EDHI 282050Z AUTO 05003KT 9999 // FEW070/// 19/11 Q1020
10:20 下午
M
68 °F 3¾ mi - 030° 030° 3 kt METAR EDHI 282020Z AUTO 03003KT 010V070 6000 // NCD 20/11 Q1020
9:50 下午
V
70 °F 6¼ mi+ - 010° 010° 4 kt METAR EDHI 281950Z AUTO 01004KT 9999 // FEW068/// 21/11 Q1019
9:20 下午
V
72 °F 6¼ mi+ - Var 000° 0 kt METAR EDHI 281920Z AUTO 00000KT 9999 // FEW068/// 22/12 Q1019
8:50 下午
V
73 °F 6¼ mi+ - Var Var 1 kt METAR EDHI 281850Z AUTO VRB01KT 9999 // NCD 23/10 Q1019
8:20 下午
V
73 °F 6¼ mi+ - 010° 010° 3 kt METAR EDHI 281820Z AUTO 01003KT 310V080 9999 // NCD 23/10 Q1019
7:50 下午
V
73 °F 6¼ mi+ - 230° 230° 3 kt METAR EDHI 281750Z 23003KT 140V290 CAVOK 23/10 Q1019
7:20 下午
V
73 °F 6¼ mi+ - Var Var 3 kt METAR EDHI 281720Z VRB03KT CAVOK 23/10 Q1019
6:50 下午
V
73 °F 6¼ mi+ - 310° 310° 5 kt METAR EDHI 281650Z 31005KT 270V350 CAVOK 23/10 Q1019
6:20 下午
V
75 °F 6¼ mi+ - Var Var 2 kt METAR EDHI 281620Z VRB02KT CAVOK 24/10 Q1020
5:50 下午
V
75 °F 6¼ mi+ - 290° 290° 6 kt METAR EDHI 281550Z 29006KT 190V330 CAVOK 24/11 Q1020
5:20 下午
V
75 °F 6¼ mi+ - 210° 210° 3 kt METAR EDHI 281520Z 21003KT 130V270 CAVOK 24/10 Q1020
4:50 下午
V
75 °F 6¼ mi+ - 260° 260° 4 kt METAR EDHI 281450Z 26004KT 190V330 CAVOK 24/11 Q1020
4:20 下午
V
73 °F 6¼ mi+ - 220° 220° 6 kt METAR EDHI 281420Z 22006KT 170V290 CAVOK 23/10 Q1020
3:50 下午
V
73 °F 6¼ mi+ - 250° 250° 5 kt METAR EDHI 281350Z 25005KT 210V300 CAVOK 23/10 Q1021
3:20 下午
V
72 °F 6¼ mi+ - Var Var 3 kt METAR EDHI 281320Z VRB03KT CAVOK 22/09 Q1021
2:50 下午
V
72 °F 6¼ mi+ - Var Var 4 kt METAR EDHI 281250Z VRB04KT 9999 FEW049 SCT066 22/11 Q1021
2:20 下午
V
72 °F 6¼ mi+ - 290° 290° 5 kt METAR EDHI 281220Z 29005KT 200V360 9999 FEW045 22/10 Q1021
1:50 下午
V
70 °F 6¼ mi+ - 290° 290° 6 kt METAR EDHI 281150Z 29006KT 250V010 9999 FEW044 21/12 Q1021
1:20 下午
V
73 °F 6¼ mi+ - 240° 240° 6 kt METAR EDHI 281120Z 24006KT 160V320 9999 FEW042 23/12 Q1021
12:50 下午
V
70 °F 6¼ mi+ - 240° 240° 6 kt METAR EDHI 281050Z 24006KT 170V330 9999 FEW039 21/10 Q1021
12:20 下午
V
70 °F 6¼ mi+ - Var Var 5 kt METAR EDHI 281020Z VRB05KT 9999 SCT039 21/11 Q1021
11:50 上午
V
70 °F 6¼ mi+ - 230° 230° 6 kt METAR EDHI 280950Z 23006KT 160V280 9999 SCT034 21/13 Q1021
11:20 上午
V
66 °F 6¼ mi+ - 250° 250° 7 kt METAR EDHI 280920Z 25007KT 190V320 9999 FEW034 SCT040 19/11 Q1021
10:50 上午
V
66 °F 6¼ mi+ - 250° 250° 7 kt METAR EDHI 280850Z 25007KT 220V290 9999 FEW031 19/11 Q1021
10:20 上午
V
66 °F 6¼ mi+ - 240° 240° 9 kt METAR EDHI 280820Z 24009KT 210V270 9999 FEW026 19/11 Q1021
9:50 上午
V
64 °F 6¼ mi+ - 270° 270° 9 kt METAR EDHI 280750Z 27009KT 9999 FEW017 18/12 Q1021
9:20 上午
V
64 °F 6¼ mi+ - 260° 260° 8 kt METAR EDHI 280720Z 26008KT 220V290 9999 FEW012 SCT043 18/16 Q1021
8:50 上午
V
61 °F 6¼ mi+ - 270° 270° 8 kt METAR EDHI 280650Z 27008KT 9999 FEW011 16/15 Q1021
8:20 上午
M
63 °F 6¼ mi+ 1.100 ft 260° 260° 8 kt METAR EDHI 280620Z 26008KT 220V280 9999 FEW009 BKN011 17/15 Q1021
7:50 上午
I
61 °F 6¼ mi+ 700 ft 240° 240° 5 kt METAR EDHI 280550Z 24005KT 210V270 9999 BKN007 16/16 Q1020
7:20 上午
I
59 °F 5⅝ mi 600 ft 250° 250° 3 kt METAR EDHI 280520Z 25003KT 130V290 9000 BKN006 15/15 Q1021
6:50 上午
I
59 °F 5⅝ mi 500 ft 150° 150° 3 kt METAR EDHI 280450Z 15003KT 110V190 9000 BKN005 15/15 Q1021
6:20 上午
V
57 °F 6¼ mi+ - Var Var 2 kt METAR EDHI 280420Z VRB02KT 9999 FEW006 SCT016 14/14 Q1020
5:50 上午
V
57 °F 6¼ mi+ - 230° 230° 3 kt METAR EDHI 280350Z 23003KT 9999 FEW006 SCT019 14/14 Q1020
5:20 上午
M
59 °F 4⅜ mi - 250° 250° 7 kt METAR EDHI 280320Z AUTO 25007KT 7000 // FEW007/// SCT097/// 15/15 Q1019
4:50 上午
V
59 °F 6¼ mi+ 9.200 ft 270° 270° 4 kt METAR EDHI 280250Z AUTO 27004KT 9999 // FEW064/// OVC092/// 15/15 Q1019
4:20 上午
V
59 °F 6¼ mi+ 9.000 ft 260° 260° 4 kt METAR EDHI 280220Z AUTO 26004KT 230V290 9999 // FEW008/// SCT064/// OVC090/// 15/15 Q1019
3:50 上午
V
59 °F 6¼ mi+ 3.400 ft 240° 240° 6 kt METAR EDHI 280150Z AUTO 24006KT 9999 // SCT007/// BKN034/// OVC067/// 15/15 Q1019
3:20 上午
V
59 °F 6¼ mi+ 6.400 ft 240° 240° 4 kt METAR EDHI 280120Z AUTO 24004KT 210V270 9999 // FEW007/// BKN064/// 15/15 Q1019
2:50 上午
V
61 °F 6¼ mi+ 6.200 ft 290° 290° 4 kt METAR EDHI 280050Z AUTO 29004KT 250V320 9999 // FEW007/// OVC062/// 16/15 Q1019
2:20 上午
V
61 °F 6¼ mi+ 6.000 ft 300° 300° 5 kt METAR EDHI 280020Z AUTO 30005KT 260V330 9999 // FEW008/// OVC060/// 16/16 Q1019
1:50 上午
I
59 °F 2⅜ mi 1.800 ft 270° 270° 8 kt METAR EDHI 272350Z AUTO 27008KT 9999 3800 // SCT007/// BKN018/// OVC060/// 15/15 Q1018
1:20 上午
I
61 °F 2¼ mi 1.400 ft 270° 270° 10 kt METAR EDHI 272320Z AUTO 27010KT 9999 3600 // SCT007/// SCT012/// OVC014/// 16/15 Q1018
12:50 上午
M
61 °F 6¼ mi+ 1.500 ft 270° 270° 10 kt METAR EDHI 272250Z AUTO 27010KT 9999 // FEW006/// SCT012/// OVC015/// 16/15 Q1018
12:20 上午
M
61 °F 6¼ mi+ 1.800 ft 270° 270° 6 kt METAR EDHI 272220Z AUTO 27006KT 9999 // FEW008/// BKN018/// OVC210/// 16/16 Q1018

2022年6月27日

时间 代码 天气 温度 能见度 天花板 METAR/SPECI
11:50 下午
M
61 °F 6¼ mi+ 1.700 ft 280° 280° 4 kt METAR EDHI 272150Z AUTO 28004KT 250V320 9999 // SCT005/// OVC017/// 16/16 Q1018
较旧的数据

下载我们的应用程序

在您的手机和平板电脑上轻松访问所有航空天气。
有许多网站上没有的功能,如离线支持和个人机场列表。

Studio Eveline

Benalmádena
España

我们和第三方通过cookies跟踪您在我们网站上的上网行为。如果您继续,我们认为您同意我们的cookie政策。 了解更多